Latest Coastal Weather Observations for Yanakie

IDV60701

Issued at 5:55 am EST Saturday 26 July 2014 (issued every 10 minutes, with the page automatically refreshed every 10 minutes)

About coastal observations | Map of coastal stations | Coastal observations for VIC | Marine services | Other Formats
Station Details ID: 085301 Name: YANAKIE Lat: -38.81 Lon: 146.19 Height: 13.3 m
Data from the previous 72 hours. | See also: Recent months at Yanakie
Date/Time
EST
Temp

°C
Wind Pressure Rain
since 9am
mm
Weather Cloud Vis
km
Sea
Height
m
Swell
Dir
 
Speed
knots
Gust
knots
hPa Trend Height
m
Period
s
Dir
26/05:30am 11.3 NNW 5 7 1019.5 - 0.2 - - - - - - -
26/05:00am 11.0 NW 5 7 1019.3 - 0.2 - - - - - - -
26/04:30am 10.9 NNW 5 8 1019.1 - 0.2 - - - - - - -
26/04:00am 11.4 NNW 5 7 1019.1 - 0.2 - - - - - - -
26/03:30am 11.4 NNW 7 10 1019.1 - 0.2 - - - - - - -
26/03:00am 11.0 NNW 7 9 1019.1 - 0.2 - - - - - - -
26/02:30am 11.0 NNW 7 9 1019.1 - 0.2 - - - - - - -
26/02:00am 10.8 N 5 6 1019.0 - 0.2 - - - - - - -
26/01:30am 11.0 NNW 6 9 1018.9 - 0.2 - - - - - - -
26/01:00am 11.1 NNW 5 8 1018.9 - 0.2 - - - - - - -
26/12:30am 11.4 N 5 6 1018.7 - 0.2 - - - - - - -
26/12:00am 12.2 NNW 6 8 1018.9 - 0.2 - - - - - - -
 
Date/Time
EST
Temp

°C
Wind Pressure Rain
since 9am
mm
Weather Cloud Vis
km
Sea
Height
m
Swell
Dir
 
Speed
knots
Gust
knots
hPa Trend Height
m
Period
s
Dir
25/11:30pm 12.3 NNW 6 9 1019.0 - 0.2 - - - - - - -
25/11:00pm 12.1 NNW 6 9 1018.9 - 0.2 - - - - - - -
25/10:30pm 12.0 NNW 7 9 1018.8 - 0.2 - - - - - - -
25/10:00pm 11.4 NNW 7 9 1018.8 - 0.2 - - - - - - -
25/09:30pm 12.6 NNW 9 12 1018.6 - 0.2 - - - - - - -
25/09:00pm 13.2 NNW 10 13 1018.4 - 0.2 - - - - - - -
25/08:30pm 12.9 NNW 7 13 1018.2 - 0.2 - - - - - - -
25/08:00pm 12.9 NNW 8 10 1018.0 - 0.2 - - - - - - -
25/07:30pm 12.6 NNW 7 9 1017.8 - 0.2 - - - - - - -
25/07:00pm 12.6 NNW 6 9 1017.5 - 0.2 - - - - - - -
25/06:30pm 12.4 N 5 7 1017.2 - 0.2 - - - - - - -
25/06:00pm 13.0 NNW 7 9 1016.9 - 0.2 - - - - - - -
25/05:30pm 13.3 NNW 8 11 1016.7 - 0.2 - - - - - - -
25/05:00pm 13.9 NNW 8 12 1016.4 - 0.2 - - - - - - -
25/04:30pm 13.9 NNW 9 13 1016.2 - 0.2 - - - - - - -
25/04:00pm 14.5 NNW 8 11 1016.1 - 0.2 - - - - - - -
25/03:30pm 15.0 NNW 7 11 1015.8 - 0.2 - - - - - - -
25/03:00pm 16.3 NNW 7 9 1015.5 - 0.2 - - - - - - -
25/02:30pm 14.9 NNW 7 10 1015.6 - 0.2 - - - - - - -
25/02:00pm 14.4 N 8 13 1015.5 - 0.2 - - - - - - -
25/01:30pm 15.3 N 6 10 1015.6 - 0.2 - - - - - - -
25/01:00pm 15.1 NNW 8 11 1015.8 - 0.2 - - - - - - -
25/12:30pm 15.2 N 7 11 1016.0 - 0.2 - - - - - - -
25/12:00pm 15.7 N 9 14 1016.1 - 0.2 - - - - - - -
25/11:30am 16.6 N 7 10 1016.4 - 0.2 - - - - - - -
25/11:00am 14.4 ENE 5 8 1016.6 - 0.2 - - - - - - -
25/10:30am 15.2 NNE 6 8 1016.6 - 0.0 - - - - - - -
25/10:00am 13.4 NE 4 6 1016.7 - 0.0 - - - - - - -
25/09:30am 11.3 ENE 4 5 1016.5 - 0.0 - - - - - - -
25/09:00am 10.9 ENE 4 6 1016.3 - 1.6 - - - - - - -
25/08:30am 10.0 ENE 4 6 1016.0 - 1.6 - - - - - - -
25/08:00am 9.6 NNE 3 4 1015.7 - 1.6 - - - - - - -
25/07:30am 9.4 ENE 3 3 1015.3 - 1.6 - - - - - - -
25/07:00am 9.9 NNE 4 5 1015.2 - 1.6 - - - - - - -
25/06:30am 10.3 NNE 5 6 1015.3 - 1.0 - - - - - - -
25/06:00am 9.9 NE 4 5 1014.7 - 1.0 - - - - - - -
25/05:30am 10.0 NE 4 5 1014.4 - 1.0 - - - - - - -
25/05:00am 10.3 ENE 4 5 1014.4 - 1.0 - - - - - - -
25/04:30am 10.3 NE 3 5 1014.2 - 1.0 - - - - - - -
25/04:00am 9.5 NE 3 5 1014.2 - 1.0 - - - - - - -
25/03:30am 10.3 NNE 3 4 1014.2 - 1.0 - - - - - - -
25/03:00am 10.3 NNE 2 4 1014.1 - 1.0 - - - - - - -
25/02:30am 11.1 NNE 5 7 1013.8 - 1.0 - - - - - - -
25/02:00am 11.3 E 6 9 1013.6 - 1.0 - - - - - - -
25/01:30am 11.0 E 6 8 1014.1 - 1.0 - - - - - - -
25/01:00am 11.3 E 6 9 1014.1 - 1.0 - - - - - - -
25/12:30am 11.4 E 6 10 1014.3 - 1.0 - - - - - - -
25/12:00am 11.1 E 4 7 1014.4 - 1.0 - - - - - - -
 
Date/Time
EST
Temp

°C
Wind Pressure Rain
since 9am
mm
Weather Cloud Vis
km
Sea
Height
m
Swell
Dir
 
Speed
knots
Gust
knots
hPa Trend Height
m
Period
s
Dir
24/11:30pm 10.9 E 4 7 1014.7 - 1.0 - - - - - - -
24/11:00pm 11.0 E 5 10 1014.7 - 1.0 - - - - - - -
24/10:30pm 10.5 E 6 9 1014.8 - 1.0 - - - - - - -
24/10:00pm 10.9 ENE 9 11 1015.1 - 1.0 - - - - - - -
24/09:30pm 10.6 E 5 9 1015.0 - 1.0 - - - - - - -
24/09:00pm 10.7 E 7 10 1015.1 - 1.0 - - - - - - -
24/08:30pm 10.6 E 7 10 1015.0 - 1.0 - - - - - - -
24/08:00pm 10.4 ENE 4 8 1015.4 - 1.0 - - - - - - -
24/07:30pm 10.2 NE 3 5 1015.3 - 1.0 - - - - - - -
24/07:00pm 10.1 NE 3 5 1015.1 - 1.0 - - - - - - -
24/06:30pm 10.4 ENE 5 7 1015.0 - 1.0 - - - - - - -
24/06:00pm 10.5 NE 5 8 1015.1 - 1.0 Recent precip. - - - - - -
24/05:30pm 11.3 E 5 8 1015.0 - 1.0 - - - - - - -
24/05:00pm 11.5 ENE 5 8 1015.0 - 0.8 - - - - - - -
24/04:30pm 12.1 E 6 9 1015.0 - 0.8 - - - - - - -
24/04:00pm 11.9 E 8 14 1014.5 - 0.8 - - - - - - -
24/03:30pm 11.7 NE 1 2 1015.3 - 0.4 - - - - - - -
24/03:00pm 12.2 CALM 0 0 1015.4 - 0.0 - - - - - - -
24/02:30pm 12.0 N 2 6 1015.2 - 0.0 - - - - - - -
24/02:00pm 11.9 NE 2 3 1015.2 - 0.0 - - - - - - -
24/01:30pm 11.3 NNE 3 4 1015.5 - 0.0 - - - - - - -
24/01:00pm 10.7 ENE 4 5 1015.7 - 0.0 - - - - - - -
24/12:30pm 10.7 NE 5 7 1016.1 - 0.0 - - - - - - -
24/12:00pm 9.4 NE 5 8 1016.8 - 0.0 - - - - - - -
24/11:30am 8.6 ENE 8 11 1017.1 - 0.0 - - - - - - -
24/11:00am 7.7 ENE 6 8 1017.3 - 0.0 - - - - - - -
24/10:30am 7.6 NNE 5 7 1017.7 - 0.0 - - - - - - -
24/10:00am 7.6 NNE 4 6 1017.4 - 0.0 - - - - - - -
24/09:30am 7.5 NNE 5 6 1017.6 - 0.0 - - - - - - -
24/09:00am 7.7 NNE 5 7 1017.7 - 0.0 - - - - - - -
24/08:30am 7.7 NE 4 6 1017.5 - 0.0 - - - - - - -
24/08:00am 6.9 NNE 5 7 1017.7 - 0.0 - - - - - - -
24/07:30am 3.5 N 4 5 1017.6 - 0.0 - - - - - - -
24/07:00am 4.6 N 4 5 1017.8 - 0.0 - - - - - - -
24/06:30am 3.1 CALM 0 1 1017.7 - 0.0 - - - - - - -
24/06:00am 5.2 N 3 4 1017.6 - 0.0 - - - - - - -
24/05:30am 5.5 N 3 4 1017.4 - 0.0 - - - - - - -
24/05:00am 4.9 N 2 3 1017.5 - 0.0 - - - - - - -
24/04:30am 4.5 N 2 3 1017.4 - 0.0 - - - - - - -
24/04:00am 5.3 N 2 3 1017.3 - 0.0 - - - - - - -
24/03:30am 5.4 N 1 2 1017.6 - 0.0 - - - - - - -
24/03:00am 5.3 N 2 3 1017.5 - 0.0 - - - - - - -
24/02:30am 5.0 N 2 3 1017.9 - 0.0 - - - - - - -
24/02:00am 5.3 N 4 6 1018.2 - 0.0 - - - - - - -
24/01:30am 6.1 N 4 6 1018.1 - 0.0 - - - - - - -
24/01:00am 6.6 N 3 5 1018.2 - 0.0 - - - - - - -
24/12:30am 7.7 N 3 4 1018.5 - 0.0 - - - - - - -
24/12:00am 8.8 ENE 7 9 1018.7 - 0.0 - - - - - - -
 
Date/Time
EST
Temp

°C
Wind Pressure Rain
since 9am
mm
Weather Cloud Vis
km
Sea
Height
m
Swell
Dir
 
Speed
knots
Gust
knots
hPa Trend Height
m
Period
s
Dir
23/11:30pm 9.3 NE 7 11 1019.2 - 0.0 - - - - - - -
23/11:00pm 9.1 ENE 7 10 1019.4 - 0.0 - - - - - - -
23/10:30pm 9.1 ENE 9 13 1019.8 - 0.0 - - - - - - -
23/10:00pm 9.0 ENE 7 9 1020.2 - 0.0 - - - - - - -
23/09:30pm 8.9 E 6 8 1020.3 - 0.0 - - - - - - -
23/09:00pm 9.2 ENE 7 10 1020.6 - 0.0 - - - - - - -
23/08:30pm 9.6 ENE 8 11 1020.7 - 0.0 - - - - - - -
23/08:00pm 9.7 ENE 6 8 1020.6 - 0.0 - - - - - - -
23/07:30pm 9.8 ENE 6 9 1020.6 - 0.0 - - - - - - -
23/07:00pm 9.7 E 5 8 1020.5 - 0.0 - - - - - - -
23/06:30pm 9.7 E 5 8 1020.5 - 0.0 - - - - - - -
23/06:00pm 9.8 E 4 6 1020.3 - 0.0 - - - - - - -
23/05:30pm 10.0 E 5 8 1020.0 - 0.0 - - - - - - -
23/05:00pm 10.4 E 6 8 1020.0 - 0.0 - - - - - - -
23/04:30pm 11.2 E 6 11 1020.1 - 0.0 - - - - - - -
23/04:00pm 11.6 E 7 11 1020.0 - 0.0 - - - - - - -
23/03:30pm 11.6 E 6 10 1020.2 - 0.0 - - - - - - -
23/03:00pm 12.0 E 7 10 1020.3 - 0.0 - - - - - - -
23/02:30pm 12.6 E 6 10 1020.5 - 0.0 - - - - - - -
23/02:00pm 13.1 E 6 9 1020.5 - 0.0 - - - - - - -
23/01:30pm 13.0 E 8 12 1021.0 - 0.0 - - - - - - -
23/01:00pm 12.7 E 7 11 1021.6 - 0.0 - - - - - - -
23/12:30pm 12.4 ENE 6 9 1022.2 - 0.0 - - - - - - -
23/12:00pm 12.3 ENE 6 10 1022.7 - 0.0 - - - - - - -
23/11:30am 11.5 ENE 6 8 1023.4 - 0.0 - - - - - - -
23/11:00am 11.4 ENE 4 7 1023.8 - 0.0 - - - - - - -
23/10:30am 10.4 ENE 4 6 1024.0 - 0.0 - - - - - - -
23/10:00am 9.3 ENE 3 5 1024.1 - 0.0 - - - - - - -
23/09:30am 8.4 NE 2 4 1024.2 - 0.0 - - - - - - -
23/09:00am 7.3 NE 2 2 1024.4 - 0.0 - - - - - - -
23/08:59am 7.1 NE 2 2 1024.4 - 0.0 - - - - - - -
23/08:30am 2.0 NE 1 1 1024.4 - 0.0 - - - - - - -
23/08:00am 2.4 CALM 0 2 1024.4 - 0.0 - - - - - - -
23/07:30am 1.5 NNE 1 2 1024.4 - 0.0 - - - - - - -
23/07:00am 1.7 CALM 0 0 1023.9 - 0.0 - - - - - - -
23/06:30am 1.7 CALM 0 0 1023.8 - 0.0 - - - - - - -
23/06:00am 1.1 CALM 0 0 1024.0 - 0.0 - - - - - - -

Other Formats:

Comma delimited format used in spreadsheet applications
http://www.bom.gov.au/fwo/IDV60701/IDV60701.94911.axf

JavaScript Object Notation format (JSON) in row-major order
http://www.bom.gov.au/fwo/IDV60701/IDV60701.94911.json